Tucson, AZ

11:24 AM MST on February 06, 2016 (GMT -0700)
UA WRRC WEATHER | | Change Station
CLOSE
Current Station
Personal Weather Station
Location: Tucson, AZ
Elevation: 2431 ft
Nearby Weather Stations

Elev 2431 ft 32.23 °N, 110.94 °W | Updated 14 minutes ago

Clear
Clear
63.5 °F
Feels Like 63.5 °F
N
2.0
Wind Variable Wind from NNW
Gusts 6.0 mph

Today
High -- | Low -- °F
--% Chance of Precip.
Yesterday
High -- | Low -- °F
Precip. -- in
Pressure 30.30 in
Visibility 10.0 miles
Clouds Clear
Dew Point 10 °F
Humidity 12%
Rainfall 0.00 in
Snow Depth Not available.
7:14 AM 6:01 PM
Waning Crescent, 4% visible
METAR KDMA 061758Z AUTO 10004KT 10SM CLR 16/M14 A3033 RMK AO2 SLP258 T01601144 10160 20044 58001 $
Pressure 30.30 in
Visibility 10.0 miles
Clouds Clear
Dew Point 10 °F
Humidity 12%
Rainfall 0.00 in
Snow Depth Not available.
7:14 AM 6:01 PM
Waning Crescent, 4% visible
METAR KDMA 061758Z AUTO 10004KT 10SM CLR 16/M14 A3033 RMK AO2 SLP258 T01601144 10160 20044 58001 $

10-Day Weather Forecast

Almanac

Astronomy

Feb. 06, 2016 Rise Set
Actual Time
Civil Twilight
Nautical Twilight
Astronomical Twilight
Moon
Length of Visible Light
Length of Day
Tomorrow will be .
, % of the Moon is Illuminated

Today's Extremes

State Highs State Lows

Community

WunderPhotos

Upload Photos

1,891,030 photos uploaded!

WunderBlog® & News

Nearby

Air Quality

  Air Quality AQ Index Pollutant
Not available.

Snow Depth

Station Depth Elevation

Earthquake Activity

City Distance Mag. Time & Date
Minimum magnitude displayed is 2.5.

Coastal Water Temperatures

Place Temperature

Stations

Nearby Weather Stations

Station Location Temp. Windchill Dew Point Humidity Wind Precip. Elev Updated Type
                   

Watches & Warnings

There are currently no watches in effect.